createdAt,value
2022-09-09T00:01:37.125Z,15.90
2022-09-09T00:04:33.060Z,15.80
2022-09-09T00:07:23.101Z,15.80
2022-09-09T00:10:21.175Z,15.80
2022-09-09T00:12:51.254Z,15.80
2022-09-09T00:15:30.356Z,15.70
2022-09-09T00:18:18.610Z,15.70
2022-09-09T00:20:59.358Z,15.70
2022-09-09T00:23:33.042Z,15.60
2022-09-09T00:26:36.569Z,15.60
2022-09-09T00:29:38.340Z,15.60
2022-09-09T00:32:19.776Z,15.60
2022-09-09T00:35:03.934Z,15.50
2022-09-09T00:37:34.553Z,15.50
2022-09-09T00:40:13.086Z,15.40
2022-09-09T00:42:45.675Z,15.40
2022-09-09T00:45:18.586Z,15.40
2022-09-09T00:47:51.972Z,15.40
2022-09-09T00:50:26.959Z,15.40
2022-09-09T00:53:27.520Z,15.30
2022-09-09T00:56:22.727Z,15.30
2022-09-09T00:59:15.864Z,15.30
2022-09-09T01:01:43.360Z,15.30
2022-09-09T01:04:18.343Z,15.20
2022-09-09T01:06:53.369Z,15.20
2022-09-09T01:09:29.530Z,15.10
2022-09-09T01:12:18.701Z,15.10
2022-09-09T01:15:11.279Z,15.10
2022-09-09T01:17:54.891Z,15.10
2022-09-09T01:20:52.102Z,15.00
2022-09-09T01:23:43.408Z,15.00
2022-09-09T01:26:29.029Z,15.00
2022-09-09T01:28:56.345Z,15.00
2022-09-09T01:31:30.919Z,14.90
2022-09-09T01:33:58.126Z,14.90
2022-09-09T01:36:54.451Z,14.90
2022-09-09T01:39:22.565Z,14.90
2022-09-09T01:41:49.731Z,14.90
2022-09-09T01:44:17.225Z,14.90
2022-09-09T01:46:44.208Z,14.80
2022-09-09T01:49:12.139Z,14.80
2022-09-09T01:51:40.712Z,14.80
2022-09-09T01:54:09.015Z,14.80
2022-09-09T01:57:00.490Z,14.80
2022-09-09T01:59:49.335Z,14.80
2022-09-09T02:02:55.310Z,14.80
2022-09-09T02:05:54.210Z,14.80
2022-09-09T02:08:47.126Z,14.80
2022-09-09T02:11:19.998Z,14.70
2022-09-09T02:13:49.884Z,14.70
2022-09-09T02:16:39.254Z,14.60
2022-09-09T02:19:14.067Z,14.60
2022-09-09T02:21:45.346Z,14.60
2022-09-09T02:24:16.076Z,14.60
2022-09-09T02:26:46.783Z,14.60
2022-09-09T02:29:17.439Z,14.60
2022-09-09T02:31:47.001Z,14.60
2022-09-09T02:34:19.092Z,14.60
2022-09-09T02:36:48.277Z,14.60
2022-09-09T02:39:15.844Z,14.60
2022-09-09T02:41:43.739Z,14.60
2022-09-09T02:44:17.977Z,14.60
2022-09-09T02:47:05.513Z,14.60
2022-09-09T02:49:51.355Z,14.60
2022-09-09T02:52:56.569Z,14.60
2022-09-09T02:55:45.247Z,14.60
2022-09-09T02:58:20.571Z,14.60
2022-09-09T03:00:51.137Z,14.60
2022-09-09T03:03:20.681Z,14.50
2022-09-09T03:05:47.962Z,14.50
2022-09-09T03:08:15.292Z,14.50
2022-09-09T03:10:42.518Z,14.50
2022-09-09T03:13:09.779Z,14.50
2022-09-09T03:15:38.353Z,14.50
2022-09-09T03:18:05.546Z,14.50
2022-09-09T03:20:33.011Z,14.50
2022-09-09T03:23:01.764Z,14.50
2022-09-09T03:25:29.816Z,14.60
2022-09-09T03:27:57.579Z,14.60
2022-09-09T03:30:27.186Z,14.60
2022-09-09T03:32:55.937Z,14.60
2022-09-09T03:35:23.399Z,14.70
2022-09-09T03:37:50.754Z,14.70
2022-09-09T03:40:18.115Z,14.70
2022-09-09T03:42:45.312Z,14.80
2022-09-09T03:45:12.655Z,14.80
2022-09-09T03:47:39.982Z,14.80
2022-09-09T03:50:11.584Z,14.80
2022-09-09T03:52:41.971Z,14.90
2022-09-09T03:55:10.238Z,14.90
2022-09-09T03:57:38.244Z,14.90
2022-09-09T04:00:08.325Z,14.90
2022-09-09T04:02:35.485Z,15.00
2022-09-09T04:05:02.883Z,15.00
2022-09-09T04:07:29.959Z,15.00
2022-09-09T04:09:57.593Z,15.00
2022-09-09T04:12:24.786Z,15.10
2022-09-09T04:14:52.149Z,15.10
2022-09-09T04:17:19.222Z,15.10
2022-09-09T04:19:46.569Z,15.10
2022-09-09T04:22:13.712Z,15.20
2022-09-09T04:24:42.723Z,15.20
2022-09-09T04:27:12.817Z,15.20
2022-09-09T04:29:40.037Z,15.20
2022-09-09T04:32:07.071Z,15.30
2022-09-09T04:34:34.340Z,15.30
2022-09-09T04:37:02.285Z,15.30
2022-09-09T04:39:29.935Z,15.30
2022-09-09T04:41:57.730Z,15.40
2022-09-09T04:44:24.931Z,15.40
2022-09-09T04:46:52.062Z,15.40
2022-09-09T04:49:19.201Z,15.50
2022-09-09T04:51:48.094Z,15.50
2022-09-09T04:54:15.258Z,15.50
2022-09-09T04:56:44.296Z,15.60
2022-09-09T04:59:11.480Z,15.60
2022-09-09T05:01:39.393Z,15.60
2022-09-09T05:04:06.622Z,15.70
2022-09-09T05:06:33.737Z,15.70
2022-09-09T05:09:01.379Z,15.80
2022-09-09T05:11:33.299Z,15.80
2022-09-09T05:14:00.434Z,15.80
2022-09-09T05:16:27.610Z,15.90
2022-09-09T05:18:54.826Z,15.90
2022-09-09T05:21:25.393Z,16.00
2022-09-09T05:23:52.674Z,16.00
2022-09-09T05:26:24.077Z,16.00
2022-09-09T05:28:51.416Z,16.10
2022-09-09T05:31:19.836Z,16.10
2022-09-09T05:33:50.521Z,16.10
2022-09-09T05:36:21.212Z,16.10
2022-09-09T05:38:50.243Z,16.20
2022-09-09T05:41:18.862Z,16.20
2022-09-09T05:43:47.854Z,16.30
2022-09-09T05:46:23.862Z,16.30
2022-09-09T05:48:52.951Z,16.30
2022-09-09T05:51:27.650Z,16.30
2022-09-09T05:53:56.271Z,16.40
2022-09-09T05:56:26.502Z,16.40
2022-09-09T05:58:55.350Z,16.40
2022-09-09T06:01:32.755Z,16.50
2022-09-09T06:04:00.425Z,16.50
2022-09-09T06:06:32.807Z,16.50
2022-09-09T06:09:00.166Z,16.60
2022-09-09T06:11:32.371Z,16.60
2022-09-09T06:14:00.678Z,16.60
2022-09-09T06:16:30.231Z,16.70
2022-09-09T06:18:58.968Z,16.70
2022-09-09T06:21:28.466Z,16.80
2022-09-09T06:23:59.087Z,16.80
2022-09-09T06:26:33.826Z,16.90
2022-09-09T06:29:04.667Z,17.00
2022-09-09T06:31:38.076Z,17.10
2022-09-09T06:34:09.898Z,17.10
2022-09-09T06:36:40.070Z,17.30
2022-09-09T06:39:14.197Z,17.40
2022-09-09T06:41:42.131Z,17.50
2022-09-09T06:44:09.502Z,17.50
2022-09-09T06:46:36.768Z,17.60
2022-09-09T06:49:04.429Z,17.70
2022-09-09T06:51:35.800Z,17.80
2022-09-09T06:54:04.695Z,17.80
2022-09-09T06:56:38.371Z,17.80
2022-09-09T06:59:09.490Z,17.90
2022-09-09T07:01:41.798Z,17.90
2022-09-09T07:04:10.136Z,18.00
2022-09-09T07:06:44.297Z,18.00
2022-09-09T07:09:15.070Z,18.00
2022-09-09T07:11:45.757Z,18.00
2022-09-09T07:14:16.095Z,18.10
2022-09-09T07:16:44.937Z,18.10
2022-09-09T07:19:15.196Z,18.10
2022-09-09T07:21:42.995Z,18.10
2022-09-09T07:24:14.074Z,18.20
2022-09-09T07:26:41.739Z,18.20
2022-09-09T07:29:10.041Z,18.20
2022-09-09T07:31:40.973Z,18.30
2022-09-09T07:34:08.617Z,18.30
2022-09-09T07:36:39.726Z,18.30
2022-09-09T07:39:14.186Z,18.40
2022-09-09T07:41:45.871Z,18.40
2022-09-09T07:44:25.966Z,18.50
2022-09-09T07:46:53.363Z,18.50
2022-09-09T07:49:27.485Z,18.50
2022-09-09T07:51:56.979Z,18.50
2022-09-09T07:54:24.825Z,18.60
2022-09-09T07:56:53.993Z,18.60
2022-09-09T07:59:21.337Z,18.70
2022-09-09T08:01:53.372Z,18.80
2022-09-09T08:04:22.190Z,18.90
2022-09-09T08:06:59.721Z,18.90
2022-09-09T08:09:30.058Z,19.00
2022-09-09T08:11:58.218Z,19.10
2022-09-09T08:14:26.272Z,19.20
2022-09-09T08:16:55.494Z,19.20
2022-09-09T08:19:22.812Z,19.30
2022-09-09T08:21:50.169Z,19.40
2022-09-09T08:24:18.234Z,19.40
2022-09-09T08:26:50.310Z,19.50
2022-09-09T08:29:18.158Z,19.50
2022-09-09T08:31:55.612Z,19.60
2022-09-09T08:34:23.685Z,19.60
2022-09-09T08:36:52.755Z,19.60
2022-09-09T08:39:22.380Z,19.60
2022-09-09T08:41:59.583Z,19.60
2022-09-09T08:44:35.445Z,19.60
2022-09-09T08:47:39.550Z,19.70
2022-09-09T08:50:26.611Z,19.70
2022-09-09T08:53:11.607Z,19.70
2022-09-09T08:56:02.690Z,19.70
2022-09-09T08:58:33.847Z,19.80
2022-09-09T09:01:35.299Z,19.80
2022-09-09T09:04:42.565Z,19.80
2022-09-09T09:07:43.075Z,19.90
2022-09-09T09:10:49.584Z,19.90
2022-09-09T09:13:48.651Z,19.90
2022-09-09T09:16:48.965Z,20.00
2022-09-09T09:19:17.949Z,20.00
2022-09-09T09:21:51.020Z,20.00
2022-09-09T09:24:49.261Z,20.10
2022-09-09T09:27:36.719Z,20.10
2022-09-09T09:30:29.487Z,20.10
2022-09-09T09:33:21.805Z,20.20
2022-09-09T09:35:51.934Z,20.20
2022-09-09T09:41:13.176Z,20.20
2022-09-09T09:43:45.852Z,20.20
2022-09-09T09:46:26.853Z,20.20
2022-09-09T09:49:09.999Z,20.20
2022-09-09T09:51:37.641Z,20.30
2022-09-09T09:54:17.223Z,20.30
2022-09-09T09:56:45.831Z,20.30
2022-09-09T09:59:39.573Z,20.30
2022-09-09T10:02:27.640Z,20.40
2022-09-09T10:05:07.810Z,20.40
2022-09-09T10:07:35.190Z,20.40
2022-09-09T10:10:02.657Z,20.40
2022-09-09T10:12:45.238Z,20.50
2022-09-09T10:15:35.203Z,20.50
2022-09-09T10:18:41.142Z,20.50
2022-09-09T10:21:33.103Z,20.50
2022-09-09T10:24:37.603Z,20.50
2022-09-09T10:27:57.511Z,20.50
2022-09-09T10:30:38.659Z,20.60
2022-09-09T10:33:28.812Z,20.60
2022-09-09T10:36:27.357Z,20.50
2022-09-09T10:39:31.359Z,20.50
2022-09-09T10:42:11.616Z,20.50
2022-09-09T10:45:34.868Z,20.50
2022-09-09T10:48:28.000Z,20.50
2022-09-09T10:51:38.076Z,20.50
2022-09-09T10:54:50.062Z,20.60
2022-09-09T10:57:37.464Z,20.60
2022-09-09T11:00:18.749Z,20.50
2022-09-09T11:02:49.119Z,20.50
2022-09-09T11:05:46.542Z,20.50
2022-09-09T11:08:19.320Z,20.50
2022-09-09T11:10:57.835Z,20.50
2022-09-09T11:13:50.785Z,20.60
2022-09-09T11:16:53.542Z,20.60
2022-09-09T11:19:43.336Z,20.70
2022-09-09T11:22:24.640Z,20.80
2022-09-09T11:25:01.473Z,20.80
2022-09-09T11:27:57.826Z,20.90
2022-09-09T11:31:12.613Z,21.00
2022-09-09T11:33:59.774Z,21.10
2022-09-09T11:36:50.921Z,21.10
2022-09-09T11:39:48.757Z,21.20
2022-09-09T11:42:22.588Z,21.30
2022-09-09T11:44:49.875Z,21.30
2022-09-09T11:47:31.665Z,21.30
2022-09-09T11:50:17.195Z,21.40
2022-09-09T11:53:21.238Z,21.40
2022-09-09T11:55:49.325Z,21.40
2022-09-09T11:58:20.278Z,21.50
2022-09-09T12:00:51.224Z,21.60
2022-09-09T12:03:50.933Z,21.60
2022-09-09T12:06:33.881Z,21.60
2022-09-09T12:09:20.897Z,21.70
2022-09-09T12:11:48.085Z,21.70
2022-09-09T12:14:46.532Z,21.70
2022-09-09T12:17:43.490Z,21.80
2022-09-09T12:20:33.880Z,21.80
2022-09-09T12:23:32.417Z,21.90
2022-09-09T12:26:34.713Z,21.90
2022-09-09T12:29:38.394Z,21.90
2022-09-09T12:32:15.386Z,21.90
2022-09-09T12:34:50.126Z,21.90
2022-09-09T12:37:38.312Z,21.90
2022-09-09T12:40:36.049Z,21.90
2022-09-09T12:43:19.924Z,21.90
2022-09-09T12:45:47.452Z,21.90
2022-09-09T12:48:18.532Z,21.90
2022-09-09T12:50:56.837Z,21.90
2022-09-09T12:53:33.264Z,21.90
2022-09-09T12:56:10.274Z,21.90
2022-09-09T12:58:39.621Z,21.80
2022-09-09T13:01:07.993Z,21.70
2022-09-09T13:03:44.165Z,21.70
2022-09-09T13:06:31.995Z,21.70
2022-09-09T13:09:02.142Z,21.70
2022-09-09T13:11:43.216Z,21.70
2022-09-09T13:14:33.614Z,21.70
2022-09-09T13:17:04.718Z,21.70
2022-09-09T13:19:38.169Z,21.70
2022-09-09T13:22:43.893Z,21.70
2022-09-09T13:25:12.098Z,21.80
2022-09-09T13:28:05.379Z,21.80
2022-09-09T13:30:39.057Z,21.80
2022-09-09T13:33:21.017Z,21.90
2022-09-09T13:36:06.937Z,21.90
2022-09-09T13:38:42.787Z,22.00
2022-09-09T13:41:11.827Z,22.00
2022-09-09T13:43:48.408Z,22.10
2022-09-09T13:46:35.493Z,22.20
2022-09-09T13:49:09.999Z,22.20
2022-09-09T13:51:50.009Z,22.30
2022-09-09T13:54:20.331Z,22.40
2022-09-09T13:56:50.746Z,22.50
2022-09-09T13:59:20.998Z,22.60
2022-09-09T14:01:48.450Z,22.60
2022-09-09T14:04:16.820Z,22.60
2022-09-09T14:06:44.575Z,22.60
2022-09-09T14:09:14.838Z,22.60
2022-09-09T14:11:42.722Z,22.60
2022-09-09T14:14:09.888Z,22.60
2022-09-09T14:16:37.508Z,22.60
2022-09-09T14:19:04.921Z,22.60
2022-09-09T14:21:32.407Z,22.60
2022-09-09T14:23:59.585Z,22.70
2022-09-09T14:26:27.383Z,22.70
2022-09-09T14:28:55.929Z,22.80
2022-09-09T14:31:25.307Z,22.90
2022-09-09T14:33:53.242Z,22.90
2022-09-09T14:36:20.845Z,23.00
2022-09-09T14:38:48.347Z,23.10
2022-09-09T14:41:19.506Z,23.20
2022-09-09T14:43:47.832Z,23.30
2022-09-09T14:46:17.879Z,23.30
2022-09-09T14:48:46.332Z,23.30
2022-09-09T14:51:24.074Z,23.30
2022-09-09T14:53:56.734Z,23.40
2022-09-09T14:56:27.649Z,23.40
2022-09-09T14:58:57.550Z,23.40
2022-09-09T15:01:28.369Z,23.40
2022-09-09T15:04:05.401Z,23.40
2022-09-09T15:06:36.907Z,23.50
2022-09-09T15:09:04.684Z,23.60
2022-09-09T15:11:39.431Z,23.60
2022-09-09T15:14:08.737Z,23.70
2022-09-09T15:16:36.858Z,23.70
2022-09-09T15:19:05.735Z,23.70
2022-09-09T15:21:36.073Z,23.70
2022-09-09T15:24:05.459Z,23.70
2022-09-09T15:26:32.911Z,23.70
2022-09-09T15:29:00.509Z,23.70
2022-09-09T15:31:32.902Z,23.80
2022-09-09T15:34:08.452Z,23.80
2022-09-09T15:36:41.876Z,23.90
2022-09-09T15:39:16.700Z,23.90
2022-09-09T15:41:46.097Z,24.00
2022-09-09T15:44:14.307Z,24.00
2022-09-09T15:46:47.823Z,24.00
2022-09-09T15:49:23.118Z,24.00
2022-09-09T15:51:59.697Z,23.90
2022-09-09T15:54:27.879Z,23.80
2022-09-09T15:56:59.130Z,23.70
2022-09-09T15:59:29.287Z,23.60
2022-09-09T16:01:57.907Z,23.40
2022-09-09T16:04:26.120Z,23.30
2022-09-09T16:07:00.257Z,23.20
2022-09-09T16:09:28.484Z,23.00
2022-09-09T16:12:01.919Z,22.90
2022-09-09T16:14:30.075Z,22.90
2022-09-09T16:16:59.760Z,22.80
2022-09-09T16:19:26.990Z,22.70
2022-09-09T16:21:54.094Z,22.60
2022-09-09T16:24:21.583Z,22.50
2022-09-09T16:26:53.051Z,22.40
2022-09-09T16:29:20.928Z,22.40
2022-09-09T16:31:49.287Z,22.20
2022-09-09T16:34:18.588Z,22.20
2022-09-09T16:36:46.915Z,22.10
2022-09-09T16:39:17.651Z,22.10
2022-09-09T16:41:47.027Z,22.10
2022-09-09T16:44:16.807Z,22.00
2022-09-09T16:46:49.748Z,22.00
2022-09-09T16:49:17.516Z,22.00
2022-09-09T16:51:50.598Z,21.90
2022-09-09T16:54:19.373Z,21.90
2022-09-09T16:56:48.760Z,21.90
2022-09-09T16:59:19.487Z,21.90
2022-09-09T17:01:51.181Z,21.80
2022-09-09T17:04:22.449Z,21.80
2022-09-09T17:06:51.858Z,21.80
2022-09-09T17:09:21.558Z,21.80
2022-09-09T17:11:51.865Z,21.70
2022-09-09T17:14:23.486Z,21.70
2022-09-09T17:16:51.525Z,21.70
2022-09-09T17:19:18.883Z,21.60
2022-09-09T17:22:15.591Z,21.60
2022-09-09T17:24:36.340Z,21.60
2022-09-09T17:27:04.719Z,21.50
2022-09-09T17:29:31.753Z,21.50
2022-09-09T17:31:59.200Z,21.40
2022-09-09T17:34:26.556Z,21.30
2022-09-09T17:36:53.668Z,21.30
2022-09-09T17:39:21.481Z,21.30
2022-09-09T17:41:48.584Z,21.20
2022-09-09T17:44:16.447Z,21.20
2022-09-09T17:46:44.552Z,21.10
2022-09-09T17:49:15.743Z,21.10
2022-09-09T17:51:45.151Z,21.00
2022-09-09T17:54:17.499Z,21.00
2022-09-09T17:56:45.781Z,21.00
2022-09-09T17:59:17.728Z,20.90
2022-09-09T18:01:47.283Z,20.90
2022-09-09T18:04:18.088Z,20.90
2022-09-09T18:06:49.066Z,20.90
2022-09-09T18:09:20.236Z,20.90
2022-09-09T18:11:50.320Z,20.80
2022-09-09T18:14:21.501Z,20.80
2022-09-09T18:16:49.609Z,20.80
2022-09-09T18:19:21.009Z,20.70
2022-09-09T18:21:49.325Z,20.70
2022-09-09T18:24:18.770Z,20.70
2022-09-09T18:26:46.314Z,20.70
2022-09-09T18:29:18.157Z,20.60
2022-09-09T18:31:45.214Z,20.60
2022-09-09T18:34:15.524Z,20.60
2022-09-09T18:36:56.191Z,20.60
2022-09-09T18:39:28.049Z,20.50
2022-09-09T18:42:00.745Z,20.50
2022-09-09T18:44:34.832Z,20.50
2022-09-09T18:47:03.823Z,20.50
2022-09-09T18:49:31.172Z,20.40
2022-09-09T18:51:59.298Z,20.40
2022-09-09T18:54:30.420Z,20.40
2022-09-09T18:57:00.883Z,20.40
2022-09-09T18:59:29.416Z,20.30
2022-09-09T19:01:56.819Z,20.30
2022-09-09T19:04:27.505Z,20.30
2022-09-09T19:06:57.982Z,20.30
2022-09-09T19:09:31.769Z,20.20
2022-09-09T19:12:01.132Z,20.20
2022-09-09T19:14:29.294Z,20.20
2022-09-09T19:16:56.543Z,20.20
2022-09-09T19:19:32.828Z,20.10
2022-09-09T19:22:01.794Z,20.10
2022-09-09T19:24:32.596Z,20.10
2022-09-09T19:27:06.815Z,20.10
2022-09-09T19:29:36.574Z,20.00
2022-09-09T19:34:53.010Z,20.00
2022-09-09T19:37:20.676Z,19.90
2022-09-09T19:39:49.721Z,19.90
2022-09-09T19:42:17.343Z,19.90
2022-09-09T19:44:44.457Z,19.80
2022-09-09T19:47:13.039Z,19.80
2022-09-09T19:49:42.946Z,19.80
2022-09-09T19:52:13.556Z,19.80
2022-09-09T19:54:41.002Z,19.70
2022-09-09T19:57:08.011Z,19.70
2022-09-09T19:59:36.018Z,19.70
2022-09-09T20:02:03.350Z,19.60
2022-09-09T20:04:30.616Z,19.60
2022-09-09T20:06:57.642Z,19.60
2022-09-09T20:09:27.057Z,19.60
2022-09-09T20:11:54.139Z,19.60
2022-09-09T20:14:21.397Z,19.60
2022-09-09T20:16:49.676Z,19.50
2022-09-09T20:19:17.284Z,19.50
2022-09-09T20:21:50.174Z,19.50
2022-09-09T20:24:23.020Z,19.50
2022-09-09T20:26:50.172Z,19.40
2022-09-09T20:29:20.165Z,19.40
2022-09-09T20:31:48.631Z,19.40
2022-09-09T20:34:21.630Z,19.30
2022-09-09T20:36:50.468Z,19.30
2022-09-09T20:39:20.752Z,19.20
2022-09-09T20:41:48.978Z,19.20
2022-09-09T20:44:19.308Z,19.10
2022-09-09T20:46:50.102Z,19.10
2022-09-09T20:49:20.772Z,19.10
2022-09-09T20:51:50.503Z,19.00
2022-09-09T20:54:24.479Z,19.00
2022-09-09T20:56:53.523Z,19.00
2022-09-09T20:59:34.847Z,18.90
2022-09-09T21:02:03.451Z,18.90
2022-09-09T21:04:31.502Z,18.80
2022-09-09T21:06:58.730Z,18.80
2022-09-09T21:09:25.964Z,18.80
2022-09-09T21:11:53.927Z,18.70
2022-09-09T21:14:21.618Z,18.70
2022-09-09T21:16:48.851Z,18.60
2022-09-09T21:19:16.154Z,18.60
2022-09-09T21:21:43.272Z,18.50
2022-09-09T21:24:11.100Z,18.50
2022-09-09T21:26:39.511Z,18.50
2022-09-09T21:29:06.746Z,18.50
2022-09-09T21:31:33.988Z,18.50
2022-09-09T21:34:01.352Z,18.50
2022-09-09T21:36:28.682Z,18.50
2022-09-09T21:38:59.287Z,18.50
2022-09-09T21:41:26.599Z,18.50
2022-09-09T21:43:54.885Z,18.50
2022-09-09T21:46:23.526Z,18.50
2022-09-09T21:48:51.126Z,18.50
2022-09-09T21:51:19.067Z,18.50
2022-09-09T21:53:46.313Z,18.40
2022-09-09T21:56:18.642Z,18.40
2022-09-09T21:58:47.424Z,18.40
2022-09-09T22:01:19.958Z,18.30
2022-09-09T22:03:47.550Z,18.30
2022-09-09T22:06:16.947Z,18.30
2022-09-09T22:08:46.148Z,18.30
2022-09-09T22:11:22.605Z,18.20
2022-09-09T22:13:50.809Z,18.20
2022-09-09T22:16:22.216Z,18.20
2022-09-09T22:18:56.956Z,18.20
2022-09-09T22:21:26.404Z,18.10
2022-09-09T22:23:59.827Z,18.10
2022-09-09T22:26:29.846Z,18.10
2022-09-09T22:28:57.996Z,18.10
2022-09-09T22:31:26.535Z,18.10
2022-09-09T22:33:54.451Z,18.00
2022-09-09T22:36:22.063Z,18.00
2022-09-09T22:38:50.938Z,18.00
2022-09-09T22:41:19.632Z,18.00
2022-09-09T22:43:47.762Z,17.90
2022-09-09T22:46:15.432Z,17.90
2022-09-09T22:48:44.039Z,17.80
2022-09-09T22:51:14.447Z,17.80
2022-09-09T22:53:44.757Z,17.80
2022-09-09T22:56:19.120Z,17.80
2022-09-09T22:58:47.381Z,17.80
2022-09-09T23:01:19.394Z,17.70
2022-09-09T23:03:47.167Z,17.70
2022-09-09T23:06:24.367Z,17.60
2022-09-09T23:09:00.682Z,17.60
2022-09-09T23:11:31.864Z,17.60
2022-09-09T23:14:01.782Z,17.60
2022-09-09T23:16:31.179Z,17.50
2022-09-09T23:18:59.614Z,17.50
2022-09-09T23:21:28.184Z,17.40
2022-09-09T23:23:58.968Z,17.30
2022-09-09T23:26:29.961Z,17.30
2022-09-09T23:28:59.142Z,17.20
2022-09-09T23:31:29.800Z,17.20
2022-09-09T23:33:58.701Z,17.20
2022-09-09T23:36:29.694Z,17.10
2022-09-09T23:39:03.265Z,17.10
2022-09-09T23:41:31.719Z,17.10
2022-09-09T23:43:59.089Z,17.10
2022-09-09T23:46:28.809Z,17.00
2022-09-09T23:48:57.935Z,17.00
2022-09-09T23:51:29.029Z,17.00
2022-09-09T23:53:58.430Z,17.00
2022-09-09T23:56:29.457Z,17.00
2022-09-09T23:58:56.777Z,17.10
